sensor_id;sensor_type;location;lat;lon;timestamp;temperature;humidity
70366;DHT22;57787;48.216;12.396;2023-02-20T00:02:11;7.30;78.10
70366;DHT22;57787;48.216;12.396;2023-02-20T00:04:38;7.30;78.60
70366;DHT22;57787;48.216;12.396;2023-02-20T00:07:08;7.30;78.70
70366;DHT22;57787;48.216;12.396;2023-02-20T00:09:35;7.30;78.80
70366;DHT22;57787;48.216;12.396;2023-02-20T00:12:03;7.30;78.90
70366;DHT22;57787;48.216;12.396;2023-02-20T00:14:31;7.30;78.60
70366;DHT22;57787;48.216;12.396;2023-02-20T00:16:58;7.30;78.20
70366;DHT22;57787;48.216;12.396;2023-02-20T00:19:26;7.30;78.50
70366;DHT22;57787;48.216;12.396;2023-02-20T00:21:53;7.30;78.80
70366;DHT22;57787;48.216;12.396;2023-02-20T00:24:21;7.30;78.10
70366;DHT22;57787;48.216;12.396;2023-02-20T00:26:50;7.30;78.50
70366;DHT22;57787;48.216;12.396;2023-02-20T00:29:19;7.30;78.30
70366;DHT22;57787;48.216;12.396;2023-02-20T00:31:50;7.30;78.10
70366;DHT22;57787;48.216;12.396;2023-02-20T00:34:18;7.30;77.90
70366;DHT22;57787;48.216;12.396;2023-02-20T00:36:46;7.30;77.90
70366;DHT22;57787;48.216;12.396;2023-02-20T00:39:15;7.30;77.90
70366;DHT22;57787;48.216;12.396;2023-02-20T00:41:43;7.30;78.10
70366;DHT22;57787;48.216;12.396;2023-02-20T00:44:11;7.30;78.20
70366;DHT22;57787;48.216;12.396;2023-02-20T00:46:38;7.30;78.30
70366;DHT22;57787;48.216;12.396;2023-02-20T00:49:06;7.30;78.30
70366;DHT22;57787;48.216;12.396;2023-02-20T00:51:34;7.30;77.90
70366;DHT22;57787;48.216;12.396;2023-02-20T00:54:02;7.30;78.10
70366;DHT22;57787;48.216;12.396;2023-02-20T00:56:30;7.30;78.00
70366;DHT22;57787;48.216;12.396;2023-02-20T00:58:58;7.30;77.80
70366;DHT22;57787;48.216;12.396;2023-02-20T01:01:26;7.20;77.80
70366;DHT22;57787;48.216;12.396;2023-02-20T01:03:54;7.20;78.10
70366;DHT22;57787;48.216;12.396;2023-02-20T01:06:22;7.20;77.90
70366;DHT22;57787;48.216;12.396;2023-02-20T01:08:50;7.20;78.00
70366;DHT22;57787;48.216;12.396;2023-02-20T01:11:18;7.20;77.80
70366;DHT22;57787;48.216;12.396;2023-02-20T01:13:47;7.20;78.10
70366;DHT22;57787;48.216;12.396;2023-02-20T01:16:15;7.30;78.10
70366;DHT22;57787;48.216;12.396;2023-02-20T01:18:43;7.20;78.30
70366;DHT22;57787;48.216;12.396;2023-02-20T01:21:11;7.30;78.00
70366;DHT22;57787;48.216;12.396;2023-02-20T01:23:40;7.30;77.90
70366;DHT22;57787;48.216;12.396;2023-02-20T01:26:08;7.20;78.20
70366;DHT22;57787;48.216;12.396;2023-02-20T01:28:36;7.20;78.10
70366;DHT22;57787;48.216;12.396;2023-02-20T01:31:04;7.20;78.00
70366;DHT22;57787;48.216;12.396;2023-02-20T01:33:31;7.20;78.10
70366;DHT22;57787;48.216;12.396;2023-02-20T01:36:00;7.20;78.20
70366;DHT22;57787;48.216;12.396;2023-02-20T01:38:28;7.20;77.80
70366;DHT22;57787;48.216;12.396;2023-02-20T01:40:55;7.20;77.80
70366;DHT22;57787;48.216;12.396;2023-02-20T01:43:23;7.20;78.30
70366;DHT22;57787;48.216;12.396;2023-02-20T01:45:50;7.20;78.40
70366;DHT22;57787;48.216;12.396;2023-02-20T01:48:19;7.20;78.60
70366;DHT22;57787;48.216;12.396;2023-02-20T01:50:47;7.20;78.40
70366;DHT22;57787;48.216;12.396;2023-02-20T01:53:19;7.20;78.30
70366;DHT22;57787;48.216;12.396;2023-02-20T01:55:57;7.20;78.30
70366;DHT22;57787;48.216;12.396;2023-02-20T01:58:32;7.20;78.60
70366;DHT22;57787;48.216;12.396;2023-02-20T02:01:01;7.20;78.10
70366;DHT22;57787;48.216;12.396;2023-02-20T02:03:30;7.20;78.70
70366;DHT22;57787;48.216;12.396;2023-02-20T02:06:00;7.10;78.40
70366;DHT22;57787;48.216;12.396;2023-02-20T02:08:29;7.10;78.80
70366;DHT22;57787;48.216;12.396;2023-02-20T02:11:01;7.10;78.40
70366;DHT22;57787;48.216;12.396;2023-02-20T02:13:31;7.10;78.40
70366;DHT22;57787;48.216;12.396;2023-02-20T02:18:37;7.10;78.50
70366;DHT22;57787;48.216;12.396;2023-02-20T02:21:16;7.10;78.60
70366;DHT22;57787;48.216;12.396;2023-02-20T02:24:05;7.10;78.50
70366;DHT22;57787;48.216;12.396;2023-02-20T02:32:19;7.20;78.30
70366;DHT22;57787;48.216;12.396;2023-02-20T02:45:29;7.10;78.70
70366;DHT22;57787;48.216;12.396;2023-02-20T02:50:41;7.00;79.10
70366;DHT22;57787;48.216;12.396;2023-02-20T02:53:11;7.00;79.00
70366;DHT22;57787;48.216;12.396;2023-02-20T02:55:39;7.00;79.00
70366;DHT22;57787;48.216;12.396;2023-02-20T02:58:07;7.00;79.00
70366;DHT22;57787;48.216;12.396;2023-02-20T03:00:40;7.00;79.20
70366;DHT22;57787;48.216;12.396;2023-02-20T03:03:14;7.10;78.90
70366;DHT22;57787;48.216;12.396;2023-02-20T03:05:46;7.10;79.10
70366;DHT22;57787;48.216;12.396;2023-02-20T03:08:18;7.10;78.90
70366;DHT22;57787;48.216;12.396;2023-02-20T03:11:04;7.10;78.90
70366;DHT22;57787;48.216;12.396;2023-02-20T03:13:39;7.10;79.10
70366;DHT22;57787;48.216;12.396;2023-02-20T03:16:29;7.10;78.60
70366;DHT22;57787;48.216;12.396;2023-02-20T03:18:59;7.10;78.70
70366;DHT22;57787;48.216;12.396;2023-02-20T03:21:28;7.10;78.70
70366;DHT22;57787;48.216;12.396;2023-02-20T03:23:58;7.10;78.90
70366;DHT22;57787;48.216;12.396;2023-02-20T03:26:30;7.10;78.90
70366;DHT22;57787;48.216;12.396;2023-02-20T03:29:06;7.10;78.90
70366;DHT22;57787;48.216;12.396;2023-02-20T03:31:57;7.00;79.30
70366;DHT22;57787;48.216;12.396;2023-02-20T03:34:47;7.10;78.80
70366;DHT22;57787;48.216;12.396;2023-02-20T03:37:38;7.10;79.10
70366;DHT22;57787;48.216;12.396;2023-02-20T03:40:28;7.00;79.30
70366;DHT22;57787;48.216;12.396;2023-02-20T03:43:19;7.00;79.50
70366;DHT22;57787;48.216;12.396;2023-02-20T03:48:39;7.00;79.20
70366;DHT22;57787;48.216;12.396;2023-02-20T03:51:11;7.00;79.40
70366;DHT22;57787;48.216;12.396;2023-02-20T03:53:40;7.00;79.40
70366;DHT22;57787;48.216;12.396;2023-02-20T03:56:11;7.00;79.50
70366;DHT22;57787;48.216;12.396;2023-02-20T03:58:41;7.00;79.40
70366;DHT22;57787;48.216;12.396;2023-02-20T04:01:09;7.00;79.70
70366;DHT22;57787;48.216;12.396;2023-02-20T04:03:39;7.00;79.80
70366;DHT22;57787;48.216;12.396;2023-02-20T04:06:07;6.90;79.80
70366;DHT22;57787;48.216;12.396;2023-02-20T04:08:37;6.90;79.60
70366;DHT22;57787;48.216;12.396;2023-02-20T04:11:07;6.90;79.70
70366;DHT22;57787;48.216;12.396;2023-02-20T04:13:36;6.80;79.80
70366;DHT22;57787;48.216;12.396;2023-02-20T04:16:06;6.80;79.40
70366;DHT22;57787;48.216;12.396;2023-02-20T04:18:34;6.80;79.80
70366;DHT22;57787;48.216;12.396;2023-02-20T04:21:03;6.70;79.80
70366;DHT22;57787;48.216;12.396;2023-02-20T04:23:33;6.70;79.80
70366;DHT22;57787;48.216;12.396;2023-02-20T04:26:07;6.60;79.90
70366;DHT22;57787;48.216;12.396;2023-02-20T04:28:36;6.50;80.10
70366;DHT22;57787;48.216;12.396;2023-02-20T04:31:04;6.50;80.20
70366;DHT22;57787;48.216;12.396;2023-02-20T04:33:32;6.40;80.20
70366;DHT22;57787;48.216;12.396;2023-02-20T04:35:59;6.40;80.40
70366;DHT22;57787;48.216;12.396;2023-02-20T04:38:27;6.30;80.20
70366;DHT22;57787;48.216;12.396;2023-02-20T04:40:55;6.30;80.40
70366;DHT22;57787;48.216;12.396;2023-02-20T04:43:23;6.10;80.50
70366;DHT22;57787;48.216;12.396;2023-02-20T04:45:51;6.00;80.30
70366;DHT22;57787;48.216;12.396;2023-02-20T04:48:19;5.90;80.70
70366;DHT22;57787;48.216;12.396;2023-02-20T04:50:47;5.80;81.10
70366;DHT22;57787;48.216;12.396;2023-02-20T04:53:17;5.80;81.20
70366;DHT22;57787;48.216;12.396;2023-02-20T04:55:44;5.60;81.10
70366;DHT22;57787;48.216;12.396;2023-02-20T04:58:12;5.50;81.50
70366;DHT22;57787;48.216;12.396;2023-02-20T05:00:40;5.50;81.70
70366;DHT22;57787;48.216;12.396;2023-02-20T05:03:07;5.40;81.90
70366;DHT22;57787;48.216;12.396;2023-02-20T05:05:35;5.30;82.40
70366;DHT22;57787;48.216;12.396;2023-02-20T05:08:04;5.20;82.60
70366;DHT22;57787;48.216;12.396;2023-02-20T05:10:32;5.20;82.70
70366;DHT22;57787;48.216;12.396;2023-02-20T05:13:00;5.10;82.80
70366;DHT22;57787;48.216;12.396;2023-02-20T05:15:28;5.00;82.80
70366;DHT22;57787;48.216;12.396;2023-02-20T05:17:56;4.90;82.60
70366;DHT22;57787;48.216;12.396;2023-02-20T05:20:23;4.80;82.90
70366;DHT22;57787;48.216;12.396;2023-02-20T05:23:12;4.80;83.30
70366;DHT22;57787;48.216;12.396;2023-02-20T05:25:39;4.70;83.10
70366;DHT22;57787;48.216;12.396;2023-02-20T05:28:07;4.60;83.60
70366;DHT22;57787;48.216;12.396;2023-02-20T05:30:34;4.60;83.90
70366;DHT22;57787;48.216;12.396;2023-02-20T05:33:02;4.60;83.80
70366;DHT22;57787;48.216;12.396;2023-02-20T05:35:30;4.50;83.40
70366;DHT22;57787;48.216;12.396;2023-02-20T05:38:00;4.40;84.00
70366;DHT22;57787;48.216;12.396;2023-02-20T05:40:29;4.30;84.00
70366;DHT22;57787;48.216;12.396;2023-02-20T05:42:58;4.30;84.50
70366;DHT22;57787;48.216;12.396;2023-02-20T05:45:28;4.30;84.60
70366;DHT22;57787;48.216;12.396;2023-02-20T05:47:56;4.30;85.00
70366;DHT22;57787;48.216;12.396;2023-02-20T05:50:23;4.30;84.80
70366;DHT22;57787;48.216;12.396;2023-02-20T05:52:51;4.20;84.80
70366;DHT22;57787;48.216;12.396;2023-02-20T05:55:18;4.20;85.30
70366;DHT22;57787;48.216;12.396;2023-02-20T05:57:46;4.20;85.00
70366;DHT22;57787;48.216;12.396;2023-02-20T06:00:13;4.20;85.80
70366;DHT22;57787;48.216;12.396;2023-02-20T06:02:41;4.20;85.50
70366;DHT22;57787;48.216;12.396;2023-02-20T06:05:09;4.10;85.60
70366;DHT22;57787;48.216;12.396;2023-02-20T06:07:37;4.10;85.40
70366;DHT22;57787;48.216;12.396;2023-02-20T06:10:04;4.10;85.60
70366;DHT22;57787;48.216;12.396;2023-02-20T06:12:32;4.10;86.10
70366;DHT22;57787;48.216;12.396;2023-02-20T06:14:59;4.10;85.90
70366;DHT22;57787;48.216;12.396;2023-02-20T06:17:27;4.20;85.80
70366;DHT22;57787;48.216;12.396;2023-02-20T06:19:56;4.20;85.70
70366;DHT22;57787;48.216;12.396;2023-02-20T06:22:24;4.20;85.70
70366;DHT22;57787;48.216;12.396;2023-02-20T06:24:52;4.30;85.90
70366;DHT22;57787;48.216;12.396;2023-02-20T06:27:20;4.30;86.10
70366;DHT22;57787;48.216;12.396;2023-02-20T06:29:47;4.30;86.20
70366;DHT22;57787;48.216;12.396;2023-02-20T06:32:15;4.40;86.60
70366;DHT22;57787;48.216;12.396;2023-02-20T06:34:43;4.50;86.60
70366;DHT22;57787;48.216;12.396;2023-02-20T06:37:11;4.60;86.80
70366;DHT22;57787;48.216;12.396;2023-02-20T06:39:39;4.80;86.50
70366;DHT22;57787;48.216;12.396;2023-02-20T06:42:09;4.90;86.30
70366;DHT22;57787;48.216;12.396;2023-02-20T06:44:37;5.10;86.30
70366;DHT22;57787;48.216;12.396;2023-02-20T06:47:05;5.20;86.10
70366;DHT22;57787;48.216;12.396;2023-02-20T06:49:35;5.30;86.10
70366;DHT22;57787;48.216;12.396;2023-02-20T06:52:03;5.30;85.80
70366;DHT22;57787;48.216;12.396;2023-02-20T06:54:30;5.40;85.70
70366;DHT22;57787;48.216;12.396;2023-02-20T06:56:59;5.50;85.40
70366;DHT22;57787;48.216;12.396;2023-02-20T06:59:27;5.60;85.10
70366;DHT22;57787;48.216;12.396;2023-02-20T07:01:54;5.80;84.90
70366;DHT22;57787;48.216;12.396;2023-02-20T07:04:23;5.80;84.70
70366;DHT22;57787;48.216;12.396;2023-02-20T07:06:54;5.90;84.30
70366;DHT22;57787;48.216;12.396;2023-02-20T07:09:22;6.00;84.30
70366;DHT22;57787;48.216;12.396;2023-02-20T07:11:51;6.10;84.10
70366;DHT22;57787;48.216;12.396;2023-02-20T07:14:19;6.20;83.80
70366;DHT22;57787;48.216;12.396;2023-02-20T07:16:47;6.30;83.60
70366;DHT22;57787;48.216;12.396;2023-02-20T07:19:15;6.40;83.30
70366;DHT22;57787;48.216;12.396;2023-02-20T07:21:44;6.50;83.00
70366;DHT22;57787;48.216;12.396;2023-02-20T07:24:12;6.60;82.80
70366;DHT22;57787;48.216;12.396;2023-02-20T07:26:39;6.70;82.60
70366;DHT22;57787;48.216;12.396;2023-02-20T07:29:11;6.80;82.10
70366;DHT22;57787;48.216;12.396;2023-02-20T07:31:39;6.90;81.70
70366;DHT22;57787;48.216;12.396;2023-02-20T07:34:07;7.00;81.50
70366;DHT22;57787;48.216;12.396;2023-02-20T07:36:37;7.00;81.20
70366;DHT22;57787;48.216;12.396;2023-02-20T07:39:05;7.10;80.20
70366;DHT22;57787;48.216;12.396;2023-02-20T07:41:35;7.30;79.90
70366;DHT22;57787;48.216;12.396;2023-02-20T07:44:03;7.30;79.80
70366;DHT22;57787;48.216;12.396;2023-02-20T07:46:31;7.40;79.10
70366;DHT22;57787;48.216;12.396;2023-02-20T07:49:01;7.50;78.50
70366;DHT22;57787;48.216;12.396;2023-02-20T07:51:29;7.60;78.80
70366;DHT22;57787;48.216;12.396;2023-02-20T07:53:57;7.70;78.10
70366;DHT22;57787;48.216;12.396;2023-02-20T07:56:24;7.80;78.20
70366;DHT22;57787;48.216;12.396;2023-02-20T07:58:52;7.80;78.20
70366;DHT22;57787;48.216;12.396;2023-02-20T08:01:20;7.90;78.10
70366;DHT22;57787;48.216;12.396;2023-02-20T08:03:48;7.90;77.80
70366;DHT22;57787;48.216;12.396;2023-02-20T08:06:16;8.00;78.00
70366;DHT22;57787;48.216;12.396;2023-02-20T08:08:48;8.10;77.70
70366;DHT22;57787;48.216;12.396;2023-02-20T08:11:17;8.30;77.30
70366;DHT22;57787;48.216;12.396;2023-02-20T08:13:45;8.30;76.70
70366;DHT22;57787;48.216;12.396;2023-02-20T08:16:13;8.50;76.00
70366;DHT22;57787;48.216;12.396;2023-02-20T08:18:41;8.50;75.90
70366;DHT22;57787;48.216;12.396;2023-02-20T08:21:09;8.60;74.60
70366;DHT22;57787;48.216;12.396;2023-02-20T08:23:36;8.80;75.10
70366;DHT22;57787;48.216;12.396;2023-02-20T08:26:04;8.80;74.90
70366;DHT22;57787;48.216;12.396;2023-02-20T08:28:31;8.90;74.10
70366;DHT22;57787;48.216;12.396;2023-02-20T08:30:59;8.90;74.50
70366;DHT22;57787;48.216;12.396;2023-02-20T08:33:27;9.10;74.70
70366;DHT22;57787;48.216;12.396;2023-02-20T08:35:55;9.20;75.00
70366;DHT22;57787;48.216;12.396;2023-02-20T08:40:54;9.40;73.70
70366;DHT22;57787;48.216;12.396;2023-02-20T08:43:22;9.50;73.20
70366;DHT22;57787;48.216;12.396;2023-02-20T08:45:51;9.60;72.50
70366;DHT22;57787;48.216;12.396;2023-02-20T08:48:19;9.70;72.10
70366;DHT22;57787;48.216;12.396;2023-02-20T08:50:47;9.80;72.70
70366;DHT22;57787;48.216;12.396;2023-02-20T08:53:16;9.90;72.10
70366;DHT22;57787;48.216;12.396;2023-02-20T08:55:44;10.00;70.90
70366;DHT22;57787;48.216;12.396;2023-02-20T08:58:12;10.00;70.70
70366;DHT22;57787;48.216;12.396;2023-02-20T09:00:40;10.10;68.60
70366;DHT22;57787;48.216;12.396;2023-02-20T09:03:08;10.10;68.60
70366;DHT22;57787;48.216;12.396;2023-02-20T09:05:35;10.20;68.60
70366;DHT22;57787;48.216;12.396;2023-02-20T09:08:05;10.30;69.00
70366;DHT22;57787;48.216;12.396;2023-02-20T09:10:33;10.40;68.50
70366;DHT22;57787;48.216;12.396;2023-02-20T09:13:01;10.50;67.40
70366;DHT22;57787;48.216;12.396;2023-02-20T09:15:29;10.60;67.50
70366;DHT22;57787;48.216;12.396;2023-02-20T09:17:58;10.70;67.70
70366;DHT22;57787;48.216;12.396;2023-02-20T09:20:25;10.70;66.50
70366;DHT22;57787;48.216;12.396;2023-02-20T09:22:56;10.80;66.20
70366;DHT22;57787;48.216;12.396;2023-02-20T09:25:24;10.80;65.50
70366;DHT22;57787;48.216;12.396;2023-02-20T09:27:52;10.80;66.00
70366;DHT22;57787;48.216;12.396;2023-02-20T09:30:20;10.90;66.10
70366;DHT22;57787;48.216;12.396;2023-02-20T09:32:47;10.90;65.40
70366;DHT22;57787;48.216;12.396;2023-02-20T09:35:17;11.00;65.30
70366;DHT22;57787;48.216;12.396;2023-02-20T09:37:45;11.10;65.10
70366;DHT22;57787;48.216;12.396;2023-02-20T09:40:13;11.10;65.20
70366;DHT22;57787;48.216;12.396;2023-02-20T09:42:55;11.20;65.40
70366;DHT22;57787;48.216;12.396;2023-02-20T09:45:26;11.20;64.50
70366;DHT22;57787;48.216;12.396;2023-02-20T09:48:14;11.20;63.50
70366;DHT22;57787;48.216;12.396;2023-02-20T09:53:17;11.10;63.40
70366;DHT22;57787;48.216;12.396;2023-02-20T09:55:55;11.10;64.40
70366;DHT22;57787;48.216;12.396;2023-02-20T09:58:26;11.30;65.10
70366;DHT22;57787;48.216;12.396;2023-02-20T10:00:58;11.30;63.80
70366;DHT22;57787;48.216;12.396;2023-02-20T10:03:31;11.40;63.40
70366;DHT22;57787;48.216;12.396;2023-02-20T10:06:08;11.50;63.00
70366;DHT22;57787;48.216;12.396;2023-02-20T10:08:42;11.60;63.00
70366;DHT22;57787;48.216;12.396;2023-02-20T10:11:11;11.70;63.60
70366;DHT22;57787;48.216;12.396;2023-02-20T10:13:45;11.80;63.20
70366;DHT22;57787;48.216;12.396;2023-02-20T10:16:18;11.80;63.90
70366;DHT22;57787;48.216;12.396;2023-02-20T10:18:52;11.90;62.20
70366;DHT22;57787;48.216;12.396;2023-02-20T10:24:00;12.10;61.80
70366;DHT22;57787;48.216;12.396;2023-02-20T10:26:33;12.30;62.70
70366;DHT22;57787;48.216;12.396;2023-02-20T10:31:46;12.50;61.60
70366;DHT22;57787;48.216;12.396;2023-02-20T10:34:20;12.60;61.40
70366;DHT22;57787;48.216;12.396;2023-02-20T10:36:54;12.80;60.10
70366;DHT22;57787;48.216;12.396;2023-02-20T10:39:22;12.90;60.60
70366;DHT22;57787;48.216;12.396;2023-02-20T10:41:59;13.00;59.30
70366;DHT22;57787;48.216;12.396;2023-02-20T10:44:41;13.00;59.90
70366;DHT22;57787;48.216;12.396;2023-02-20T10:47:21;13.10;60.20
70366;DHT22;57787;48.216;12.396;2023-02-20T10:52:19;13.00;58.20
70366;DHT22;57787;48.216;12.396;2023-02-20T10:55:12;13.00;58.80
70366;DHT22;57787;48.216;12.396;2023-02-20T10:57:43;13.10;57.60
70366;DHT22;57787;48.216;12.396;2023-02-20T11:00:26;13.20;58.50
70366;DHT22;57787;48.216;12.396;2023-02-20T11:02:56;13.30;57.80
70366;DHT22;57787;48.216;12.396;2023-02-20T11:05:26;13.40;58.10
70366;DHT22;57787;48.216;12.396;2023-02-20T11:07:55;13.40;56.20
70366;DHT22;57787;48.216;12.396;2023-02-20T11:10:24;13.50;55.80
70366;DHT22;57787;48.216;12.396;2023-02-20T11:12:55;13.50;54.20
70366;DHT22;57787;48.216;12.396;2023-02-20T11:15:24;13.50;54.20
70366;DHT22;57787;48.216;12.396;2023-02-20T11:17:52;13.60;54.30
70366;DHT22;57787;48.216;12.396;2023-02-20T11:20:36;13.60;52.90
70366;DHT22;57787;48.216;12.396;2023-02-20T11:23:04;13.60;52.90
70366;DHT22;57787;48.216;12.396;2023-02-20T11:25:33;13.70;54.70
70366;DHT22;57787;48.216;12.396;2023-02-20T11:28:15;13.80;54.30
70366;DHT22;57787;48.216;12.396;2023-02-20T11:30:45;13.90;54.70
70366;DHT22;57787;48.216;12.396;2023-02-20T11:33:18;13.90;53.40
70366;DHT22;57787;48.216;12.396;2023-02-20T11:35:52;13.90;53.60
70366;DHT22;57787;48.216;12.396;2023-02-20T11:43:24;14.10;52.00
70366;DHT22;57787;48.216;12.396;2023-02-20T11:46:06;14.10;53.20
70366;DHT22;57787;48.216;12.396;2023-02-20T11:48:35;14.10;53.10
70366;DHT22;57787;48.216;12.396;2023-02-20T11:51:04;14.20;51.30
70366;DHT22;57787;48.216;12.396;2023-02-20T11:53:32;14.30;51.80
70366;DHT22;57787;48.216;12.396;2023-02-20T11:56:13;14.30;51.90
70366;DHT22;57787;48.216;12.396;2023-02-20T11:58:43;14.40;50.90
70366;DHT22;57787;48.216;12.396;2023-02-20T12:04:16;14.50;51.30
70366;DHT22;57787;48.216;12.396;2023-02-20T12:06:45;14.60;51.70
70366;DHT22;57787;48.216;12.396;2023-02-20T12:09:21;14.70;51.00
70366;DHT22;57787;48.216;12.396;2023-02-20T12:11:52;14.80;50.50
70366;DHT22;57787;48.216;12.396;2023-02-20T12:14:19;14.80;50.90
70366;DHT22;57787;48.216;12.396;2023-02-20T12:16:57;14.80;50.50
70366;DHT22;57787;48.216;12.396;2023-02-20T12:19:42;14.80;51.00
70366;DHT22;57787;48.216;12.396;2023-02-20T12:22:21;14.80;50.20
70366;DHT22;57787;48.216;12.396;2023-02-20T12:24:59;14.90;49.80
70366;DHT22;57787;48.216;12.396;2023-02-20T12:33:16;15.10;48.70
70366;DHT22;57787;48.216;12.396;2023-02-20T12:35:39;15.10;49.40
70366;DHT22;57787;48.216;12.396;2023-02-20T12:38:17;15.20;48.80
70366;DHT22;57787;48.216;12.396;2023-02-20T12:46:16;15.50;48.60
70366;DHT22;57787;48.216;12.396;2023-02-20T12:54:20;15.50;48.40
70366;DHT22;57787;48.216;12.396;2023-02-20T12:56:57;15.50;47.40
70366;DHT22;57787;48.216;12.396;2023-02-20T12:59:30;15.50;47.30
70366;DHT22;57787;48.216;12.396;2023-02-20T13:01:59;15.50;46.80
70366;DHT22;57787;48.216;12.396;2023-02-20T13:04:31;15.60;46.60
70366;DHT22;57787;48.216;12.396;2023-02-20T13:07:05;15.60;46.00
70366;DHT22;57787;48.216;12.396;2023-02-20T13:09:36;15.60;46.40
70366;DHT22;57787;48.216;12.396;2023-02-20T13:12:08;15.60;46.50
70366;DHT22;57787;48.216;12.396;2023-02-20T13:14:41;15.70;47.10
70366;DHT22;57787;48.216;12.396;2023-02-20T13:22:25;15.80;47.80
70366;DHT22;57787;48.216;12.396;2023-02-20T13:24:52;15.80;47.50
70366;DHT22;57787;48.216;12.396;2023-02-20T13:27:27;15.90;46.80
70366;DHT22;57787;48.216;12.396;2023-02-20T13:30:11;16.00;46.60
70366;DHT22;57787;48.216;12.396;2023-02-20T13:32:47;16.10;43.40
70366;DHT22;57787;48.216;12.396;2023-02-20T13:38:18;16.30;45.90
70366;DHT22;57787;48.216;12.396;2023-02-20T13:53:44;17.10;45.20
70366;DHT22;57787;48.216;12.396;2023-02-20T13:56:21;17.10;46.20
70366;DHT22;57787;48.216;12.396;2023-02-20T13:58:55;17.20;45.70
70366;DHT22;57787;48.216;12.396;2023-02-20T14:01:24;17.20;45.30
70366;DHT22;57787;48.216;12.396;2023-02-20T14:04:03;17.20;45.60
70366;DHT22;57787;48.216;12.396;2023-02-20T14:06:31;17.20;45.40
70366;DHT22;57787;48.216;12.396;2023-02-20T14:09:06;17.10;43.10
70366;DHT22;57787;48.216;12.396;2023-02-20T14:11:35;17.00;45.30
70366;DHT22;57787;48.216;12.396;2023-02-20T14:14:22;16.90;45.60
70366;DHT22;57787;48.216;12.396;2023-02-20T14:16:50;16.80;46.20
70366;DHT22;57787;48.216;12.396;2023-02-20T14:19:22;16.70;46.90
70366;DHT22;57787;48.216;12.396;2023-02-20T14:21:51;16.60;45.90
70366;DHT22;57787;48.216;12.396;2023-02-20T14:24:20;16.50;46.20
70366;DHT22;57787;48.216;12.396;2023-02-20T14:26:48;16.40;46.00
70366;DHT22;57787;48.216;12.396;2023-02-20T14:29:19;16.30;47.60
70366;DHT22;57787;48.216;12.396;2023-02-20T14:31:49;16.30;47.00
70366;DHT22;57787;48.216;12.396;2023-02-20T14:34:22;16.20;46.80
70366;DHT22;57787;48.216;12.396;2023-02-20T14:36:59;16.10;46.90
70366;DHT22;57787;48.216;12.396;2023-02-20T14:39:47;16.00;47.00
70366;DHT22;57787;48.216;12.396;2023-02-20T14:42:19;16.00;46.60
70366;DHT22;57787;48.216;12.396;2023-02-20T14:44:57;15.90;47.30
70366;DHT22;57787;48.216;12.396;2023-02-20T14:47:26;15.80;46.40
70366;DHT22;57787;48.216;12.396;2023-02-20T14:50:06;15.80;46.10
70366;DHT22;57787;48.216;12.396;2023-02-20T14:52:34;15.70;47.60
70366;DHT22;57787;48.216;12.396;2023-02-20T14:55:03;15.60;46.10
70366;DHT22;57787;48.216;12.396;2023-02-20T14:57:33;15.50;45.30
70366;DHT22;57787;48.216;12.396;2023-02-20T15:02:35;15.30;47.50
70366;DHT22;57787;48.216;12.396;2023-02-20T15:05:08;15.20;48.20
70366;DHT22;57787;48.216;12.396;2023-02-20T15:07:38;15.20;47.50
70366;DHT22;57787;48.216;12.396;2023-02-20T15:10:28;15.00;47.90
70366;DHT22;57787;48.216;12.396;2023-02-20T15:12:55;14.90;47.00
70366;DHT22;57787;48.216;12.396;2023-02-20T15:15:23;14.90;46.00
70366;DHT22;57787;48.216;12.396;2023-02-20T15:18:04;14.80;47.60
70366;DHT22;57787;48.216;12.396;2023-02-20T15:25:43;14.50;47.80
70366;DHT22;57787;48.216;12.396;2023-02-20T15:33:28;14.30;48.10
70366;DHT22;57787;48.216;12.396;2023-02-20T15:35:56;14.10;49.10
70366;DHT22;57787;48.216;12.396;2023-02-20T15:38:26;14.00;49.00
70366;DHT22;57787;48.216;12.396;2023-02-20T15:40:57;13.90;49.30
70366;DHT22;57787;48.216;12.396;2023-02-20T15:43:26;13.80;49.40
70366;DHT22;57787;48.216;12.396;2023-02-20T15:46:15;13.70;50.30
70366;DHT22;57787;48.216;12.396;2023-02-20T15:48:43;13.60;50.40
70366;DHT22;57787;48.216;12.396;2023-02-20T15:51:12;13.50;51.10
70366;DHT22;57787;48.216;12.396;2023-02-20T15:53:41;13.30;51.70
70366;DHT22;57787;48.216;12.396;2023-02-20T15:56:12;13.20;51.90
70366;DHT22;57787;48.216;12.396;2023-02-20T15:58:40;13.10;52.70
70366;DHT22;57787;48.216;12.396;2023-02-20T16:01:10;13.00;52.60
70366;DHT22;57787;48.216;12.396;2023-02-20T16:03:39;12.90;52.80
70366;DHT22;57787;48.216;12.396;2023-02-20T16:06:23;12.80;53.40
70366;DHT22;57787;48.216;12.396;2023-02-20T16:08:51;12.60;53.50
70366;DHT22;57787;48.216;12.396;2023-02-20T16:11:19;12.50;53.90
70366;DHT22;57787;48.216;12.396;2023-02-20T16:13:48;12.40;54.20
70366;DHT22;57787;48.216;12.396;2023-02-20T16:16:22;12.30;54.50
70366;DHT22;57787;48.216;12.396;2023-02-20T16:18:53;12.20;54.80
70366;DHT22;57787;48.216;12.396;2023-02-20T16:21:21;12.00;55.70
70366;DHT22;57787;48.216;12.396;2023-02-20T16:23:50;11.90;56.30
70366;DHT22;57787;48.216;12.396;2023-02-20T16:26:19;11.70;56.40
70366;DHT22;57787;48.216;12.396;2023-02-20T16:28:49;11.70;56.90
70366;DHT22;57787;48.216;12.396;2023-02-20T16:31:18;11.50;57.40
70366;DHT22;57787;48.216;12.396;2023-02-20T16:33:47;11.40;57.80
70366;DHT22;57787;48.216;12.396;2023-02-20T16:36:15;11.30;58.30
70366;DHT22;57787;48.216;12.396;2023-02-20T16:38:51;11.10;58.50
70366;DHT22;57787;48.216;12.396;2023-02-20T16:41:18;11.00;58.70
70366;DHT22;57787;48.216;12.396;2023-02-20T16:43:47;10.80;59.10
70366;DHT22;57787;48.216;12.396;2023-02-20T16:46:15;10.70;59.10
70366;DHT22;57787;48.216;12.396;2023-02-20T16:48:52;10.60;59.40
70366;DHT22;57787;48.216;12.396;2023-02-20T16:51:20;10.50;59.60
70366;DHT22;57787;48.216;12.396;2023-02-20T16:53:52;10.30;59.90
70366;DHT22;57787;48.216;12.396;2023-02-20T16:56:22;10.20;60.20
70366;DHT22;57787;48.216;12.396;2023-02-20T16:58:50;10.10;60.50
70366;DHT22;57787;48.216;12.396;2023-02-20T17:01:18;10.00;60.80
70366;DHT22;57787;48.216;12.396;2023-02-20T17:03:45;9.90;61.00
70366;DHT22;57787;48.216;12.396;2023-02-20T17:06:13;9.80;61.10
70366;DHT22;57787;48.216;12.396;2023-02-20T17:08:47;9.70;61.40
70366;DHT22;57787;48.216;12.396;2023-02-20T17:11:18;9.60;61.60
70366;DHT22;57787;48.216;12.396;2023-02-20T17:13:45;9.50;62.20
70366;DHT22;57787;48.216;12.396;2023-02-20T17:16:13;9.40;62.20
70366;DHT22;57787;48.216;12.396;2023-02-20T17:18:51;9.30;62.50
70366;DHT22;57787;48.216;12.396;2023-02-20T17:21:19;9.20;62.80
70366;DHT22;57787;48.216;12.396;2023-02-20T17:23:46;9.10;63.10